メインページ
METAR-TAF:

METAR-TAF

空港 :

Lancaster Airport

ランカスター, ペンシルバニア州, アメリカ合衆国

緯度: 40-07-13N, 経度: 076-17-40W, 海抜: 123m

現時点の気象観測

当レポートは50分前の04:53(UTC)に作成
北西の風 5kt
気温 8°C
湿度 71%
気圧 1014 hPa
視程: 16.1km
高度6000ftの曇り

METAR: KLNS 040453Z AUTO 32005KT 10SM OVC060 08/03 A2993 RMK AO2 RAB13E48 SLP135 P0000 T00830033 401170072

時間: 01:43 (05:43 UTC)

予報

当レポートは2時間8分前の03:35(UTC)に作成
予報は04日の 04時(UTC)から 04日の 24時(UTC)まで有効
北/北西の風 8kt、最大15ktの突風を伴う
視程: 10km
高度3500ftの雲は散在している
高度7000ftの曇り
近辺でにわか雨
04日の 0800時(UTC)から
北西の風 10kt
視程: 10km
高度4000ftの曇り
04日の 1100時(UTC)から
北西の風 7kt
視程: 10km
高度3500ftの曇り

TAF: KLNS 040335Z 0404/0424 34008G15KT P6SM VCSH SCT035 OVC070 FM040800 32010KT P6SM OVC040 FM041100 31007KT P6SM OVC035

4,000以上の空港の気象観測と天気予報(METAR報とTAF報)

利用可能な観測所は地図上に黄色い丸と赤い丸で示す。

丸の上にカーソルを重ねると観測所名を参照できる。

次にクリックすると気象観測と天気予報を参照できる。

マップの切り替え:黒色「×」印の緑ボタンをクリックして拡大、「-」印の緑ボタンをクリックして縮小、緑色の三角印をクリックして隣りの地図に切り替え


METAR-TAF: